Time;durP1;ratioP1;P1;durP2;ratioP2;P2;SDS_P1;SDS_P2;PMS_P1;PMS_P2;Temp;Humidity;BMP_temperature;BMP_pressure;BME280_temperature;BME280_humidity;BME280_pressure;Samples;Min_cycle;Max_cycle;Signal;HPM_P1;HPM_P2
2022/07/20 00:00:43;;;;;;;9.47;8.10;;;20.10;62.90;;;;;;5094180;28;21000;-65
2022/07/20 00:03:13;;;;;;;11.17;5.97;;;20.10;63.00;;;;;;5093803;28;20444;-65
2022/07/20 00:05:40;;;;;;;9.60;8.43;;;20.10;62.90;;;;;;5093629;28;20477;-65
2022/07/20 00:08:09;;;;;;;12.30;8.50;;;20.10;63.60;;;;;;5093189;28;20493;-66
2022/07/20 00:13:25;;;;;;;7.30;6.40;;;20.10;63.60;;;;;;5094220;28;20947;-65
2022/07/20 00:15:53;;;;;;;9.50;6.67;;;20.00;63.70;;;;;;5093192;28;20435;-65
2022/07/20 00:18:23;;;;;;;8.60;6.77;;;20.00;63.90;;;;;;5093900;28;20519;-65
2022/07/20 00:20:50;;;;;;;8.63;6.97;;;19.90;64.20;;;;;;5093409;28;20436;-65
2022/07/20 00:23:18;;;;;;;11.10;7.50;;;19.90;64.90;;;;;;5094030;28;20934;-65
2022/07/20 00:25:47;;;;;;;9.40;6.53;;;19.80;65.40;;;;;;5093411;28;20976;-65
2022/07/20 00:28:14;;;;;;;12.43;7.40;;;19.90;65.60;;;;;;5093614;28;20446;-65
2022/07/20 00:30:42;;;;;;;8.20;7.40;;;19.80;65.90;;;;;;5093393;28;20588;-65
2022/07/20 00:33:10;;;;;;;8.97;7.90;;;19.80;66.40;;;;;;5093396;28;20439;-65
2022/07/20 00:35:48;;;;;;;11.37;7.57;;;19.80;66.50;;;;;;5092905;28;20534;-66
2022/07/20 00:38:15;;;;;;;9.37;8.37;;;19.70;66.80;;;;;;5092843;28;20489;-65
2022/07/20 00:40:44;;;;;;;12.10;8.30;;;19.60;67.00;;;;;;5092100;28;20861;-65
2022/07/20 00:43:12;;;;;;;10.50;8.10;;;19.50;67.70;;;;;;5092499;28;20474;-66
2022/07/20 00:45:42;;;;;;;12.83;9.17;;;19.50;67.70;;;;;;5090997;28;20507;-66
2022/07/20 00:48:11;;;;;;;15.23;11.03;;;19.40;68.10;;;;;;5091742;28;20443;-66
2022/07/20 00:50:38;;;;;;;12.60;9.50;;;19.40;67.90;;;;;;5092090;28;20987;-65
2022/07/20 00:53:08;;;;;;;15.70;8.60;;;19.30;68.30;;;;;;5092726;28;20440;-65
2022/07/20 00:55:37;;;;;;;12.03;8.90;;;19.30;69.10;;;;;;5091755;28;20454;-65
2022/07/20 00:58:06;;;;;;;11.03;7.60;;;19.20;69.60;;;;;;5092842;28;20514;-65
2022/07/20 01:00:35;;;;;;;16.03;12.50;;;19.20;69.60;;;;;;5091324;28;20459;-71
2022/07/20 01:03:03;;;;;;;19.23;12.27;;;19.20;69.70;;;;;;5092190;28;20431;-65
2022/07/20 01:05:32;;;;;;;14.10;8.97;;;19.10;70.00;;;;;;5091476;28;20547;-65
2022/07/20 01:07:59;;;;;;;11.47;8.97;;;19.10;70.30;;;;;;5091146;28;20497;-65
2022/07/20 01:10:27;;;;;;;9.47;7.60;;;19.10;70.80;;;;;;5092453;28;20863;-65
2022/07/20 01:12:54;;;;;;;10.23;8.70;;;19.00;71.20;;;;;;5092383;28;20527;-65
2022/07/20 01:15:24;;;;;;;11.83;8.53;;;19.00;71.10;;;;;;5092047;28;20439;-65
2022/07/20 01:17:51;;;;;;;10.37;8.60;;;19.00;70.90;;;;;;5091694;28;20844;-65
2022/07/20 01:20:19;;;;;;;11.53;8.17;;;19.00;71.40;;;;;;5090816;28;20443;-66
2022/07/20 01:40:07;;;;;;;9.60;7.67;;;18.70;72.90;;;;;;5090677;28;20936;-66
2022/07/20 01:42:36;;;;;;;9.90;8.17;;;18.80;72.80;;;;;;5090456;28;20435;-66
2022/07/20 02:02:27;;;;;;;10.00;7.27;;;18.40;73.80;;;;;;5061245;28;20487;-66
2022/07/20 02:04:54;;;;;;;8.13;6.87;;;18.30;74.50;;;;;;5090992;28;20591;-65
2022/07/20 02:07:23;;;;;;;9.23;7.70;;;18.30;74.90;;;;;;5089514;28;20439;-65
2022/07/20 03:07:27;;;;;;;8.60;7.50;;;18.10;79.00;;;;;;5072095;28;20462;-68
2022/07/20 03:20:01;;;;;;;11.13;7.17;;;18.00;79.40;;;;;;5094007;28;20807;-65
2022/07/20 03:22:30;;;;;;;10.07;7.70;;;18.00;79.10;;;;;;5094293;28;20431;-65
2022/07/20 03:24:57;;;;;;;10.67;8.77;;;18.00;78.50;;;;;;5095258;28;20439;-67
2022/07/20 03:27:24;;;;;;;9.57;8.60;;;18.00;78.70;;;;;;5093880;28;20945;-66
2022/07/20 03:29:53;;;;;;;13.00;8.40;;;17.80;79.50;;;;;;5095361;28;20477;-67
2022/07/20 03:32:21;;;;;;;9.90;8.17;;;17.80;80.10;;;;;;5093802;28;20442;-67
2022/07/20 03:34:48;;;;;;;12.30;8.67;;;17.80;79.80;;;;;;5094332;28;20439;-67
2022/07/20 03:37:15;;;;;;;11.87;9.97;;;17.80;79.80;;;;;;5095015;28;20849;-66
2022/07/20 03:39:44;;;;;;;14.17;10.17;;;17.80;80.40;;;;;;5094812;28;20435;-66
2022/07/20 03:42:15;;;;;;;20.53;12.97;;;17.70;80.80;;;;;;5094853;28;20846;-66
2022/07/20 03:44:42;;;;;;;18.80;12.50;;;17.70;81.10;;;;;;5094413;28;20496;-67
2022/07/20 03:47:10;;;;;;;23.00;14.27;;;17.70;81.10;;;;;;5094535;28;21001;-69
2022/07/20 03:49:40;;;;;;;17.20;12.00;;;17.80;81.30;;;;;;5094375;28;20764;-66
2022/07/20 03:52:07;;;;;;;12.97;9.70;;;17.80;81.70;;;;;;5094967;28;20848;-66
2022/07/20 03:54:35;;;;;;;11.00;8.90;;;17.90;81.60;;;;;;5094451;28;20508;-66
2022/07/20 03:57:06;;;;;;;16.00;9.60;;;18.00;81.40;;;;;;5094684;28;20801;-66
2022/07/20 03:59:34;;;;;;;11.77;9.60;;;18.10;81.30;;;;;;5094149;28;20435;-66
2022/07/20 04:02:01;;;;;;;10.83;8.10;;;18.10;81.10;;;;;;5094682;28;20922;-66
2022/07/20 04:04:29;;;;;;;11.87;8.70;;;18.20;81.00;;;;;;5094158;28;20485;-66
2022/07/20 04:06:56;;;;;;;9.00;7.43;;;18.20;80.60;;;;;;5093833;28;20501;-66
2022/07/20 04:12:07;;;;;;;10.73;8.90;;;18.20;79.90;;;;;;5093916;28;20936;-66
2022/07/20 04:14:35;;;;;;;9.83;8.47;;;18.20;80.10;;;;;;5094194;28;20439;-66
2022/07/20 04:17:02;;;;;;;13.93;8.00;;;18.20;80.10;;;;;;5094325;28;20443;-67
2022/07/20 04:19:30;;;;;;;12.30;9.00;;;18.10;80.50;;;;;;5094719;28;20446;-66
2022/07/20 04:21:58;;;;;;;10.43;9.43;;;18.10;81.20;;;;;;5093737;28;20466;-66
2022/07/20 04:24:28;;;;;;;9.70;8.30;;;18.10;81.30;;;;;;5094056;28;20445;-67
2022/07/20 04:26:58;;;;;;;10.37;7.60;;;18.20;81.20;;;;;;5093699;28;20536;-66
2022/07/20 04:29:27;;;;;;;13.53;7.90;;;18.20;81.50;;;;;;5094129;28;20447;-67
2022/07/20 04:31:54;;;;;;;9.97;7.73;;;18.10;82.00;;;;;;5093256;28;20485;-66
2022/07/20 04:34:27;;;;;;;12.20;8.20;;;18.20;82.30;;;;;;5093965;28;20498;-66
2022/07/20 04:36:55;;;;;;;10.80;7.50;;;18.30;82.30;;;;;;5093601;28;20862;-66
2022/07/20 04:39:22;;;;;;;12.30;8.07;;;18.40;82.30;;;;;;5093982;28;20446;-66
2022/07/20 04:41:49;;;;;;;12.30;8.97;;;18.40;81.90;;;;;;5093323;28;20591;-66
2022/07/20 04:44:16;;;;;;;10.43;9.33;;;18.50;82.00;;;;;;5093622;28;20443;-66
2022/07/20 04:46:45;;;;;;;11.63;8.93;;;18.60;82.20;;;;;;5093541;28;20471;-66
2022/07/20 04:49:12;;;;;;;9.63;8.63;;;18.60;82.40;;;;;;5093614;28;20439;-67
2022/07/20 04:51:39;;;;;;;11.53;8.60;;;18.60;82.20;;;;;;5093216;28;20444;-66
2022/07/20 04:54:07;;;;;;;14.43;11.80;;;18.70;82.60;;;;;;5089364;28;20463;-70
2022/07/20 04:56:34;;;;;;;14.30;10.00;;;18.80;82.40;;;;;;5091150;28;20443;-68
2022/07/20 04:59:01;;;;;;;12.10;8.90;;;18.80;82.10;;;;;;5092041;28;20461;-66
2022/07/20 05:01:28;;;;;;;9.83;8.77;;;18.90;82.00;;;;;;5091075;28;20453;-68
2022/07/20 05:03:57;;;;;;;11.03;8.23;;;19.00;81.80;;;;;;5087385;28;20534;-66
2022/07/20 05:06:24;;;;;;;10.63;9.53;;;19.10;81.60;;;;;;5090971;28;20504;-66
2022/07/20 05:08:51;;;;;;;10.80;8.90;;;19.20;81.50;;;;;;5091529;28;20439;-66
2022/07/20 05:11:18;;;;;;;8.30;7.37;;;19.20;81.20;;;;;;5090818;28;20446;-67
2022/07/20 05:13:45;;;;;;;10.87;9.77;;;19.30;81.70;;;;;;5091346;28;20443;-66
2022/07/20 05:16:12;;;;;;;9.03;8.13;;;19.20;81.70;;;;;;5091234;28;20450;-67
2022/07/20 05:18:39;;;;;;;16.87;9.40;;;19.20;82.60;;;;;;5091489;28;20435;-67
2022/07/20 05:21:08;;;;;;;12.47;9.33;;;19.30;83.70;;;;;;5090414;28;20460;-67
2022/07/20 05:23:35;;;;;;;16.07;10.80;;;19.40;83.30;;;;;;5090964;28;20998;-66
2022/07/20 05:26:02;;;;;;;13.70;10.70;;;19.40;82.90;;;;;;5090229;28;20988;-66
2022/07/20 05:28:30;;;;;;;15.30;8.50;;;19.40;83.40;;;;;;5090264;28;20762;-67
2022/07/20 05:30:57;;;;;;;17.03;9.10;;;19.60;84.10;;;;;;5091267;28;20443;-67
2022/07/20 05:33:24;;;;;;;12.37;10.30;;;19.60;84.50;;;;;;5090801;28;20438;-66
2022/07/20 05:35:51;;;;;;;13.63;10.50;;;19.80;84.70;;;;;;5090391;28;20435;-67
2022/07/20 05:38:20;;;;;;;14.40;11.13;;;19.90;84.30;;;;;;5090910;28;20800;-67
2022/07/20 05:40:49;;;;;;;11.67;9.37;;;20.10;83.70;;;;;;5082708;28;20440;-68
2022/07/20 05:43:16;;;;;;;12.93;9.57;;;20.20;82.90;;;;;;5089926;28;20516;-66
2022/07/20 05:45:43;;;;;;;15.03;10.60;;;20.30;82.60;;;;;;5090524;28;20516;-67
2022/07/20 05:48:11;;;;;;;11.60;9.50;;;20.40;82.80;;;;;;5086016;28;20946;-67
2022/07/20 05:50:41;;;;;;;11.53;10.33;;;20.60;82.70;;;;;;5089329;28;20484;-66
2022/07/20 05:53:08;;;;;;;14.47;9.70;;;20.70;81.40;;;;;;5090000;28;20573;-67
2022/07/20 05:55:39;;;;;;;12.67;11.17;;;20.80;81.90;;;;;;5090688;28;20464;-69
2022/07/20 05:58:10;;;;;;;15.10;9.93;;;20.90;81.90;;;;;;5089322;28;20475;-67
2022/07/20 06:00:38;;;;;;;12.37;10.50;;;20.90;81.00;;;;;;5090523;28;20443;-67
2022/07/20 06:03:06;;;;;;;11.33;9.50;;;21.00;82.00;;;;;;5089723;28;20542;-67
2022/07/20 06:05:33;;;;;;;13.90;11.67;;;21.10;83.10;;;;;;5089149;28;20879;-67
2022/07/20 06:08:02;;;;;;;13.17;11.17;;;21.20;82.80;;;;;;5090129;28;20606;-66
2022/07/20 06:10:34;;;;;;;11.33;10.13;;;21.30;82.50;;;;;;5090120;28;20475;-67
2022/07/20 06:13:03;;;;;;;14.63;8.83;;;21.40;82.40;;;;;;5090521;28;20434;-67
2022/07/20 06:15:30;;;;;;;13.83;8.40;;;21.50;81.80;;;;;;5088160;28;20439;-71
2022/07/20 06:17:58;;;;;;;10.50;8.70;;;21.70;81.90;;;;;;5078823;28;20868;-67
2022/07/20 06:20:25;;;;;;;8.73;7.60;;;21.70;81.60;;;;;;5083602;28;20437;-69
2022/07/20 06:22:53;;;;;;;12.43;10.00;;;21.80;82.20;;;;;;5086703;28;20433;-66
2022/07/20 06:25:20;;;;;;;12.97;9.00;;;21.90;81.30;;;;;;5086430;28;20847;-67
2022/07/20 06:27:47;;;;;;;9.20;8.30;;;22.10;80.60;;;;;;5089610;28;20517;-66
2022/07/20 06:30:19;;;;;;;7.53;6.73;;;22.20;80.40;;;;;;5089126;28;20449;-70
2022/07/20 06:32:46;;;;;;;8.73;7.83;;;22.30;79.30;;;;;;5091451;28;20470;-65
2022/07/20 06:35:13;;;;;;;11.23;7.60;;;22.40;79.00;;;;;;5091552;28;20421;-65
2022/07/20 06:37:43;;;;;;;10.07;7.40;;;22.50;78.80;;;;;;5095364;28;20437;-65
2022/07/20 06:40:11;;;;;;;11.70;8.20;;;22.70;79.20;;;;;;5095054;28;20442;-66
2022/07/20 06:42:38;;;;;;;8.20;6.50;;;22.80;78.00;;;;;;5095689;28;20461;-65
2022/07/20 06:45:06;;;;;;;10.30;6.90;;;22.90;76.90;;;;;;5096307;28;20470;-65
2022/07/20 06:47:35;;;;;;;7.20;6.50;;;23.10;76.40;;;;;;5096330;28;20508;-65
2022/07/20 06:50:03;;;;;;;19.43;7.70;;;23.30;76.10;;;;;;5096436;28;20459;-65
2022/07/20 06:52:36;;;;;;;8.33;7.47;;;23.30;75.40;;;;;;5096216;28;20430;-65
2022/07/20 06:55:04;;;;;;;8.63;6.93;;;23.50;75.10;;;;;;5096212;28;20919;-65
2022/07/20 06:57:35;;;;;;;8.30;6.60;;;23.70;75.50;;;;;;5096340;28;20630;-66
2022/07/20 07:00:08;;;;;;;10.00;7.70;;;23.80;75.10;;;;;;5096409;28;20437;-65
2022/07/20 07:02:37;;;;;;;11.73;7.30;;;24.00;73.70;;;;;;5096125;28;20784;-66
2022/07/20 07:05:05;;;;;;;12.70;7.40;;;24.20;73.30;;;;;;5096070;28;20458;-65
2022/07/20 07:07:32;;;;;;;10.37;6.93;;;24.30;73.50;;;;;;5095981;28;20811;-65
2022/07/20 07:10:00;;;;;;;9.07;7.07;;;24.50;73.10;;;;;;5095763;28;20484;-65
2022/07/20 07:12:28;;;;;;;8.33;6.50;;;24.60;71.80;;;;;;5095965;28;20556;-65
2022/07/20 07:15:00;;;;;;;8.30;6.93;;;24.80;72.10;;;;;;5095737;28;20522;-65
2022/07/20 07:17:30;;;;;;;7.30;6.17;;;25.00;71.80;;;;;;5096381;28;20434;-65
2022/07/20 07:20:00;;;;;;;10.90;9.13;;;25.20;71.20;;;;;;5095473;28;20515;-65
2022/07/20 07:22:32;;;;;;;9.17;7.10;;;25.30;71.50;;;;;;5096081;28;20463;-65
2022/07/20 07:24:59;;;;;;;7.43;6.47;;;25.50;70.30;;;;;;5096032;28;20980;-66
2022/07/20 07:27:32;;;;;;;9.43;6.90;;;25.60;70.00;;;;;;5095376;28;20516;-65
2022/07/20 07:30:00;;;;;;;9.33;6.60;;;25.70;68.40;;;;;;5095755;28;20463;-65
2022/07/20 07:32:27;;;;;;;10.10;7.20;;;25.90;69.00;;;;;;5095709;28;20497;-65
2022/07/20 07:34:54;;;;;;;7.10;6.30;;;26.00;66.50;;;;;;5095463;28;20506;-65
2022/07/20 07:37:23;;;;;;;8.37;6.50;;;26.10;66.60;;;;;;5095285;28;20427;-71
2022/07/20 07:42:34;;;;;;;8.57;6.20;;;26.40;65.30;;;;;;5095701;28;20431;-65
2022/07/20 07:45:10;;;;;;;8.50;6.27;;;26.50;64.40;;;;;;5095407;28;20438;-65
2022/07/20 07:47:38;;;;;;;9.57;5.90;;;26.70;64.80;;;;;;5094877;28;20561;-65
2022/07/20 07:50:09;;;;;;;7.10;5.47;;;26.90;64.30;;;;;;5094969;28;20493;-66
2022/07/20 07:52:38;;;;;;;6.60;5.80;;;27.10;63.90;;;;;;5094927;28;20510;-67
2022/07/20 07:55:10;;;;;;;8.33;5.73;;;27.20;62.40;;;;;;5095256;28;20607;-65
2022/07/20 07:57:42;;;;;;;11.63;6.47;;;27.40;62.70;;;;;;5094991;28;20771;-66
2022/07/20 08:00:14;;;;;;;12.00;6.63;;;27.50;61.00;;;;;;5094947;28;20833;-65
2022/07/20 08:02:41;;;;;;;7.57;6.00;;;27.70;60.10;;;;;;5095488;28;20465;-65
2022/07/20 08:05:09;;;;;;;8.13;7.33;;;27.90;58.70;;;;;;5094380;28;20435;-65
2022/07/20 08:07:40;;;;;;;10.03;6.23;;;28.00;58.10;;;;;;5095018;28;20474;-66
2022/07/20 08:10:08;;;;;;;8.77;6.50;;;28.20;57.70;;;;;;5095229;28;20431;-65
2022/07/20 08:12:35;;;;;;;8.23;6.40;;;28.30;57.20;;;;;;5094706;28;20431;-65
2022/07/20 08:15:04;;;;;;;9.03;6.97;;;28.40;58.20;;;;;;5094601;28;20489;-65
2022/07/20 08:17:32;;;;;;;7.00;6.33;;;28.50;57.50;;;;;;5094885;28;20437;-65
2022/07/20 08:20:06;;;;;;;8.17;6.40;;;28.60;56.70;;;;;;5094294;28;20423;-65
2022/07/20 08:22:33;;;;;;;7.03;6.43;;;28.80;57.10;;;;;;5094566;28;20840;-65
2022/07/20 08:25:02;;;;;;;7.27;5.80;;;28.90;56.70;;;;;;5094728;28;20431;-70
2022/07/20 08:27:31;;;;;;;7.13;6.30;;;29.00;56.90;;;;;;5093929;28;20515;-65
2022/07/20 08:30:02;;;;;;;8.60;6.03;;;29.10;55.60;;;;;;5094594;28;20462;-65
2022/07/20 08:32:29;;;;;;;9.53;6.63;;;29.30;54.40;;;;;;5094497;28;20826;-65
2022/07/20 08:35:01;;;;;;;7.07;5.87;;;29.40;54.20;;;;;;5094525;28;20446;-67
2022/07/20 08:37:30;;;;;;;7.70;7.00;;;29.60;54.20;;;;;;5094332;28;20473;-65
2022/07/20 08:40:05;;;;;;;9.47;6.77;;;29.80;53.90;;;;;;5094031;28;20933;-65
2022/07/20 08:42:33;;;;;;;7.37;6.53;;;29.90;52.40;;;;;;5094126;28;20470;-66
2022/07/20 08:45:05;;;;;;;12.40;6.60;;;30.00;53.70;;;;;;5094050;28;20461;-66
2022/07/20 08:47:37;;;;;;;7.60;6.67;;;30.20;52.70;;;;;;5094238;28;20555;-67
2022/07/20 08:50:05;;;;;;;6.93;5.83;;;30.40;51.60;;;;;;5094319;28;20431;-68
2022/07/20 08:52:34;;;;;;;6.50;5.83;;;30.50;51.60;;;;;;5094088;28;20431;-66
2022/07/20 08:55:06;;;;;;;6.87;6.13;;;30.70;51.40;;;;;;5094257;28;20484;-65
2022/07/20 08:57:34;;;;;;;11.87;6.73;;;30.80;49.50;;;;;;5094091;28;20463;-66
2022/07/20 09:00:02;;;;;;;6.43;5.60;;;31.00;50.90;;;;;;5092873;28;20423;-66
2022/07/20 09:02:34;;;;;;;8.13;6.73;;;31.20;49.40;;;;;;5094295;28;20476;-66
2022/07/20 09:05:05;;;;;;;7.20;6.37;;;31.30;49.20;;;;;;5093646;28;20427;-65
2022/07/20 09:07:41;;;;;;;9.97;6.03;;;31.50;49.50;;;;;;5093663;28;20536;-66
2022/07/20 09:10:10;;;;;;;8.70;6.87;;;31.70;49.70;;;;;;5093704;28;20532;-66
2022/07/20 09:12:54;;;;;;;9.20;6.50;;;31.80;50.00;;;;;;5093585;28;20477;-66
2022/07/20 09:15:33;;;;;;;11.90;7.37;;;32.10;50.70;;;;;;5093665;28;20840;-66
2022/07/20 09:18:09;;;;;;;8.80;6.17;;;32.30;50.90;;;;;;5093360;28;20462;-66
2022/07/20 09:20:42;;;;;;;6.70;5.97;;;32.40;50.50;;;;;;5093753;28;20833;-66
2022/07/20 09:23:11;;;;;;;7.17;6.13;;;32.70;49.80;;;;;;5093480;28;20438;-66
2022/07/20 09:25:49;;;;;;;8.93;6.43;;;32.80;48.90;;;;;;5093051;28;20441;-66
2022/07/20 09:28:21;;;;;;;6.53;5.87;;;33.00;47.70;;;;;;5093462;28;20514;-66
2022/07/20 09:30:54;;;;;;;9.53;6.43;;;33.20;46.50;;;;;;5093200;28;20427;-66
2022/07/20 09:33:28;;;;;;;7.47;5.80;;;33.30;46.80;;;;;;5093140;28;20458;-66
2022/07/20 09:35:57;;;;;;;6.93;5.87;;;33.40;45.00;;;;;;5093612;28;20514;-66
2022/07/20 09:38:34;;;;;;;5.53;5.00;;;33.60;44.00;;;;;;5093063;28;20905;-66
2022/07/20 09:41:02;;;;;;;6.00;5.40;;;33.80;43.20;;;;;;5092894;28;20461;-66
2022/07/20 09:43:32;;;;;;;5.80;5.30;;;33.90;41.80;;;;;;5093202;28;20467;-66
2022/07/20 09:46:16;;;;;;;10.87;5.60;;;34.00;41.50;;;;;;5093349;28;20470;-66
2022/07/20 09:48:45;;;;;;;5.70;5.20;;;34.10;42.40;;;;;;5093069;28;20851;-66
2022/07/20 09:51:20;;;;;;;8.80;5.40;;;34.30;42.10;;;;;;5093204;28;20463;-71
2022/07/20 09:53:47;;;;;;;7.23;5.33;;;34.30;39.30;;;;;;5092841;28;20474;-66
2022/07/20 09:56:23;;;;;;;11.90;5.70;;;34.40;38.60;;;;;;5089698;28;20542;-68
2022/07/20 09:58:54;;;;;;;6.00;5.00;;;34.50;38.50;;;;;;5091408;28;20901;-66
2022/07/20 10:01:28;;;;;;;6.60;4.80;;;34.60;38.50;;;;;;5092173;28;20909;-66
2022/07/20 10:03:56;;;;;;;7.70;5.70;;;34.70;36.00;;;;;;5092076;28;20522;-65
2022/07/20 10:06:28;;;;;;;6.67;5.13;;;34.70;34.40;;;;;;5092105;28;20979;-66
2022/07/20 10:08:58;;;;;;;6.20;5.23;;;34.70;34.80;;;;;;5091826;28;20574;-66
2022/07/20 10:11:27;;;;;;;11.27;4.67;;;34.80;34.50;;;;;;5091653;28;20474;-66
2022/07/20 10:14:02;;;;;;;7.80;5.20;;;34.80;33.40;;;;;;5092852;28;20435;-66
2022/07/20 10:16:37;;;;;;;6.40;5.03;;;34.80;32.40;;;;;;5093196;28;20431;-68
2022/07/20 10:19:06;;;;;;;7.40;6.17;;;34.90;33.50;;;;;;5092570;28;20770;-66
2022/07/20 10:21:41;;;;;;;10.30;6.10;;;35.00;32.70;;;;;;5092937;28;20471;-66
2022/07/20 10:24:25;;;;;;;7.40;5.57;;;35.10;33.40;;;;;;5092504;28;20881;-67
2022/07/20 10:26:54;;;;;;;9.57;5.40;;;35.10;34.40;;;;;;5092192;28;20431;-66
2022/07/20 10:29:27;;;;;;;6.97;6.27;;;35.30;33.80;;;;;;5092378;28;20562;-66
2022/07/20 10:31:56;;;;;;;7.10;6.40;;;35.40;34.30;;;;;;5092817;28;20496;-66
2022/07/20 10:34:37;;;;;;;6.43;5.70;;;35.50;33.20;;;;;;5092828;28;20474;-66
2022/07/20 10:37:25;;;;;;;7.17;6.47;;;35.50;32.80;;;;;;5092925;28;20588;-66
2022/07/20 10:39:53;;;;;;;8.40;6.10;;;35.60;32.40;;;;;;5092892;28;20437;-66
2022/07/20 10:42:30;;;;;;;11.27;7.60;;;35.60;33.10;;;;;;5092124;28;20454;-66
2022/07/20 10:45:32;;;;;;;7.13;6.30;;;35.70;32.10;;;;;;5092468;28;20951;-66
2022/07/20 10:48:18;;;;;;;10.87;5.20;;;35.70;31.90;;;;;;5088032;28;20538;-66
2022/07/20 10:50:48;;;;;;;6.57;5.87;;;35.80;31.80;;;;;;5092421;28;20423;-66
2022/07/20 10:53:35;;;;;;;9.93;5.90;;;35.80;31.50;;;;;;5091607;28;20427;-66
2022/07/20 10:56:06;;;;;;;8.13;5.73;;;35.80;31.60;;;;;;5092277;28;20422;-67
2022/07/20 10:58:35;;;;;;;7.13;5.57;;;35.90;32.80;;;;;;5091993;28;20434;-66
2022/07/20 11:01:05;;;;;;;6.73;6.10;;;36.00;32.00;;;;;;5091990;28;20478;-66
2022/07/20 11:03:36;;;;;;;6.97;5.70;;;36.00;32.10;;;;;;5092546;28;20901;-66
2022/07/20 11:06:08;;;;;;;6.60;5.50;;;36.10;30.20;;;;;;5092067;28;20500;-65
2022/07/20 11:08:35;;;;;;;10.07;5.37;;;36.00;29.40;;;;;;5092095;28;20498;-66
2022/07/20 11:11:07;;;;;;;6.87;5.70;;;36.00;30.00;;;;;;5091815;28;20521;-66
2022/07/20 11:13:35;;;;;;;6.73;5.80;;;36.00;29.90;;;;;;5092202;28;20437;-66
2022/07/20 11:16:04;;;;;;;7.80;5.67;;;36.00;28.70;;;;;;5092426;28;20431;-68
2022/07/20 11:18:33;;;;;;;5.57;5.07;;;36.00;29.40;;;;;;5072456;28;20466;-66
2022/07/20 11:21:02;;;;;;;8.90;5.10;;;36.10;30.90;;;;;;5073891;28;20428;-66
2022/07/20 11:23:38;;;;;;;6.70;4.80;;;36.20;29.80;;;;;;5094261;28;20459;-67
2022/07/20 11:26:05;;;;;;;5.93;5.30;;;36.20;28.70;;;;;;5095557;28;20466;-66
2022/07/20 11:28:35;;;;;;;9.80;5.57;;;36.20;27.80;;;;;;5095788;28;20514;-66
2022/07/20 11:31:07;;;;;;;10.30;4.80;;;36.20;28.10;;;;;;5096270;28;20435;-66
2022/07/20 11:33:36;;;;;;;10.47;4.73;;;36.30;28.60;;;;;;5095987;28;20541;-66
2022/07/20 11:36:05;;;;;;;8.73;5.40;;;36.40;28.40;;;;;;5095957;28;20953;-66
2022/07/20 11:38:39;;;;;;;7.90;5.73;;;36.40;28.80;;;;;;5096271;28;20428;-66
2022/07/20 11:41:08;;;;;;;7.60;5.30;;;36.40;28.80;;;;;;5096068;28;20799;-66
2022/07/20 11:43:36;;;;;;;11.20;5.73;;;36.40;28.60;;;;;;5095815;28;21013;-66
2022/07/20 11:46:13;;;;;;;8.70;5.87;;;36.50;28.80;;;;;;5095771;28;20467;-66
2022/07/20 11:48:41;;;;;;;6.90;5.27;;;36.50;27.90;;;;;;5095693;28;20524;-66
2022/07/20 11:51:09;;;;;;;5.20;4.67;;;36.60;26.90;;;;;;5095441;28;20427;-65
2022/07/20 11:53:38;;;;;;;6.17;5.57;;;36.60;26.80;;;;;;5095178;28;20781;-66
2022/07/20 11:56:11;;;;;;;5.13;4.60;;;36.60;27.10;;;;;;5095153;28;20474;-66
2022/07/20 11:58:40;;;;;;;7.23;5.63;;;36.50;26.10;;;;;;5094955;28;20442;-66
2022/07/20 12:01:13;;;;;;;6.47;5.80;;;36.50;27.10;;;;;;5095337;28;20435;-67
2022/07/20 12:03:43;;;;;;;9.40;6.10;;;36.60;28.00;;;;;;5095476;28;20423;-66
2022/07/20 12:06:14;;;;;;;9.33;5.60;;;36.70;28.30;;;;;;5095403;28;20885;-65
2022/07/20 12:08:42;;;;;;;12.23;6.23;;;36.70;29.40;;;;;;5094747;28;20546;-65
2022/07/20 12:11:12;;;;;;;8.43;5.90;;;36.80;28.70;;;;;;5095084;28;20517;-66
2022/07/20 12:13:48;;;;;;;8.03;6.27;;;36.80;27.80;;;;;;5095351;28;20772;-67
2022/07/20 12:16:17;;;;;;;8.93;5.80;;;36.80;27.60;;;;;;5094808;28;20944;-66
2022/07/20 12:18:46;;;;;;;15.10;5.80;;;36.80;28.10;;;;;;5095334;28;20427;-67
2022/07/20 12:21:16;;;;;;;6.90;5.33;;;36.80;28.10;;;;;;5095086;28;20526;-65
2022/07/20 12:23:44;;;;;;;9.70;5.67;;;36.90;28.70;;;;;;5094828;28;20912;-66
2022/07/20 12:26:26;;;;;;;6.90;5.17;;;36.90;29.10;;;;;;5095293;28;20427;-66
2022/07/20 12:28:55;;;;;;;6.90;5.40;;;37.00;29.10;;;;;;5094683;28;20816;-66
2022/07/20 12:31:25;;;;;;;8.70;5.57;;;37.10;28.60;;;;;;5094362;28;20431;-66
2022/07/20 12:34:07;;;;;;;6.03;5.43;;;37.10;27.60;;;;;;5094800;28;20431;-65
2022/07/20 12:36:39;;;;;;;6.37;5.77;;;37.00;27.10;;;;;;5094926;28;20434;-65
2022/07/20 12:39:08;;;;;;;7.73;5.77;;;37.00;27.00;;;;;;5094711;28;20462;-65
2022/07/20 12:41:36;;;;;;;6.87;5.97;;;36.90;26.50;;;;;;5094550;28;20432;-68
2022/07/20 12:44:28;;;;;;;6.93;5.83;;;36.80;27.70;;;;;;5094589;28;20721;-65
2022/07/20 12:46:58;;;;;;;6.97;5.27;;;36.90;28.30;;;;;;5094485;28;20458;-66
2022/07/20 12:49:27;;;;;;;11.20;5.23;;;36.90;28.10;;;;;;5094135;28;20517;-66
2022/07/20 12:51:55;;;;;;;6.33;5.70;;;36.80;27.80;;;;;;5094344;28;20474;-66
2022/07/20 12:54:23;;;;;;;11.10;5.47;;;36.80;27.50;;;;;;5093985;28;20431;-65
2022/07/20 12:56:51;;;;;;;7.60;5.30;;;36.80;27.00;;;;;;5093925;28;20428;-66
2022/07/20 12:59:18;;;;;;;6.53;4.63;;;36.70;27.30;;;;;;5094159;28;20794;-66
2022/07/20 13:01:48;;;;;;;8.43;5.97;;;36.60;27.60;;;;;;5093818;28;20531;-66
2022/07/20 13:04:18;;;;;;;8.57;5.47;;;36.60;28.30;;;;;;5093958;28;20754;-71
2022/07/20 13:06:47;;;;;;;8.00;5.00;;;36.60;27.90;;;;;;5093630;28;20494;-66
2022/07/20 13:09:15;;;;;;;6.30;5.57;;;36.60;27.60;;;;;;5093804;28;21044;-66
2022/07/20 13:11:43;;;;;;;8.47;5.20;;;36.60;27.30;;;;;;5093296;28;20517;-66
2022/07/20 13:14:11;;;;;;;6.33;5.13;;;36.70;27.60;;;;;;5093707;28;20514;-66
2022/07/20 13:16:38;;;;;;;8.03;5.20;;;36.70;27.20;;;;;;5094155;28;20431;-65
2022/07/20 13:19:05;;;;;;;9.67;5.93;;;36.70;27.00;;;;;;5093942;28;20470;-65
2022/07/20 13:21:33;;;;;;;6.10;5.47;;;36.60;27.30;;;;;;5093652;28;20431;-66
2022/07/20 13:24:00;;;;;;;7.40;5.23;;;36.60;27.10;;;;;;5093664;28;20427;-65
2022/07/20 13:26:28;;;;;;;7.67;6.97;;;36.60;27.70;;;;;;5093141;28;20466;-65
2022/07/20 13:28:55;;;;;;;6.40;5.00;;;36.60;27.10;;;;;;5093290;28;20517;-66
2022/07/20 13:31:22;;;;;;;7.93;5.10;;;36.50;26.80;;;;;;5093502;28;20466;-66
2022/07/20 13:33:49;;;;;;;14.80;6.00;;;36.50;27.40;;;;;;5093532;28;20529;-65
2022/07/20 13:36:16;;;;;;;5.57;4.87;;;36.50;26.70;;;;;;5093510;28;20473;-66
2022/07/20 13:38:48;;;;;;;7.17;5.83;;;36.50;26.30;;;;;;5093298;28;20461;-65
2022/07/20 13:41:15;;;;;;;8.63;5.90;;;36.50;26.70;;;;;;5093337;28;20780;-66
2022/07/20 13:43:42;;;;;;;13.77;9.30;;;36.50;26.90;;;;;;5093259;28;20474;-66
2022/07/20 13:46:10;;;;;;;6.60;6.00;;;36.50;26.30;;;;;;5092914;28;20510;-65
2022/07/20 13:48:37;;;;;;;8.17;5.70;;;36.40;26.00;;;;;;5093113;28;20467;-66
2022/07/20 13:51:05;;;;;;;6.07;5.07;;;36.40;26.60;;;;;;5093567;28;20467;-65
2022/07/20 13:53:32;;;;;;;7.90;5.40;;;36.30;26.40;;;;;;5093198;28;20459;-65
2022/07/20 13:56:00;;;;;;;8.00;5.67;;;36.30;26.20;;;;;;5093251;28;20435;-65
2022/07/20 13:58:27;;;;;;;11.50;5.80;;;36.40;27.00;;;;;;5092999;28;20957;-65
2022/07/20 14:00:56;;;;;;;7.17;6.00;;;36.40;27.20;;;;;;5093210;28;20465;-65
2022/07/20 14:03:23;;;;;;;7.73;5.33;;;36.40;26.60;;;;;;5093215;28;20459;-67
2022/07/20 14:05:50;;;;;;;7.70;5.23;;;36.50;26.40;;;;;;5092936;28;20547;-66
2022/07/20 14:08:17;;;;;;;6.70;6.00;;;36.60;26.50;;;;;;5092580;28;20471;-65
2022/07/20 14:10:44;;;;;;;8.60;5.27;;;36.70;27.10;;;;;;5093126;28;20566;-65
2022/07/20 14:13:13;;;;;;;11.53;5.40;;;36.70;26.40;;;;;;5092926;28;20517;-66
2022/07/20 14:15:40;;;;;;;6.10;5.30;;;36.80;26.50;;;;;;5092895;28;20427;-66
2022/07/20 14:18:06;;;;;;;6.80;6.10;;;36.80;26.90;;;;;;5092996;28;20459;-65
2022/07/20 14:20:34;;;;;;;8.27;5.33;;;36.80;25.40;;;;;;5092984;28;20467;-65
2022/07/20 14:23:01;;;;;;;6.03;5.53;;;36.80;25.30;;;;;;5092464;28;20876;-65
2022/07/20 14:25:28;;;;;;;6.80;6.17;;;36.70;25.10;;;;;;5092903;28;20478;-65
2022/07/20 14:27:55;;;;;;;8.17;6.63;;;36.70;25.30;;;;;;5092334;28;20471;-65
2022/07/20 14:30:23;;;;;;;6.60;5.53;;;36.70;25.30;;;;;;5092625;28;20561;-65
2022/07/20 14:32:50;;;;;;;7.83;5.80;;;36.60;26.10;;;;;;5092647;28;20510;-65
2022/07/20 14:35:17;;;;;;;5.93;5.13;;;36.60;26.50;;;;;;5092299;28;20506;-66
2022/07/20 14:37:45;;;;;;;9.47;8.17;;;36.40;27.40;;;;;;5092492;28;20538;-65
2022/07/20 14:40:13;;;;;;;11.43;10.40;;;36.40;27.10;;;;;;5092442;28;20510;-66
2022/07/20 14:42:40;;;;;;;6.00;5.40;;;36.30;27.00;;;;;;5092787;28;20462;-65
2022/07/20 14:45:12;;;;;;;9.70;5.80;;;36.20;27.80;;;;;;5092457;28;20427;-68